createdAt,value
2023-04-25T00:02:27.087Z,98854.63
2023-04-25T00:04:55.732Z,98856.34
2023-04-25T00:07:23.230Z,98846.41
2023-04-25T00:09:51.712Z,98857.06
2023-04-25T00:12:18.896Z,98843.91
2023-04-25T00:14:47.552Z,98850.59
2023-04-25T00:17:14.688Z,98853.25
2023-04-25T00:19:42.373Z,98848.53
2023-04-25T00:22:09.546Z,98844.16
2023-04-25T00:24:36.999Z,98846.78
2023-04-25T00:27:04.325Z,98841.81
2023-04-25T00:29:32.075Z,98845.00
2023-04-25T00:31:59.382Z,98840.16
2023-04-25T00:34:27.214Z,98832.47
2023-04-25T00:36:54.572Z,98844.28
2023-04-25T00:39:22.189Z,98841.31
2023-04-25T00:41:49.790Z,98845.97
2023-04-25T00:44:18.141Z,98848.06
2023-04-25T00:46:45.856Z,98848.09
2023-04-25T00:49:16.536Z,98846.03
2023-04-25T00:51:48.124Z,98849.34
2023-04-25T00:54:17.031Z,98852.31
2023-04-25T00:56:46.307Z,98854.56
2023-04-25T00:59:16.895Z,98849.34
2023-04-25T01:01:45.329Z,98859.34
2023-04-25T01:04:14.404Z,98852.50
2023-04-25T01:06:41.985Z,98853.31
2023-04-25T01:09:09.575Z,98858.91
2023-04-25T01:11:36.805Z,98850.38
2023-04-25T01:14:04.404Z,98850.22
2023-04-25T01:16:32.468Z,98855.97
2023-04-25T01:19:00.656Z,98855.00
2023-04-25T01:21:29.230Z,98845.84
2023-04-25T01:23:57.836Z,98851.44
2023-04-25T01:26:25.961Z,98861.63
2023-04-25T01:28:53.573Z,98852.31
2023-04-25T01:31:21.143Z,98859.53
2023-04-25T01:33:48.833Z,98860.47
2023-04-25T01:36:16.853Z,98858.41
2023-04-25T01:38:45.107Z,98859.16
2023-04-25T01:41:12.432Z,98852.88
2023-04-25T01:43:40.110Z,98854.28
2023-04-25T01:46:07.961Z,98857.22
2023-04-25T01:48:35.729Z,98870.56
2023-04-25T01:51:03.168Z,98864.31
2023-04-25T01:53:31.363Z,98869.09
2023-04-25T01:55:59.113Z,98861.81
2023-04-25T01:58:30.426Z,98865.31
2023-04-25T02:01:18.052Z,98872.16
2023-04-25T02:03:54.734Z,98869.47
2023-04-25T02:06:31.923Z,98866.13
2023-04-25T02:08:59.408Z,98863.88
2023-04-25T02:11:26.654Z,98871.72
2023-04-25T02:14:12.735Z,98867.69
2023-04-25T02:17:00.452Z,98875.34
2023-04-25T02:19:28.197Z,98873.84
2023-04-25T02:21:55.651Z,98876.16
2023-04-25T02:24:23.807Z,98880.28
2023-04-25T02:26:51.036Z,98874.69
2023-04-25T02:29:18.726Z,98875.72
2023-04-25T02:31:46.087Z,98877.97
2023-04-25T02:34:13.567Z,98874.88
2023-04-25T02:36:40.922Z,98875.31
2023-04-25T02:39:08.542Z,98875.22
2023-04-25T02:41:35.855Z,98879.88
2023-04-25T02:44:03.454Z,98873.69
2023-04-25T02:46:38.903Z,98872.75
2023-04-25T02:49:08.050Z,98866.28
2023-04-25T02:51:36.327Z,98870.94
2023-04-25T02:54:04.396Z,98873.16
2023-04-25T02:56:35.027Z,98877.66
2023-04-25T02:59:02.585Z,98873.50
2023-04-25T03:01:30.726Z,98876.44
2023-04-25T03:03:58.240Z,98862.00
2023-04-25T03:06:25.763Z,98874.97
2023-04-25T03:08:53.643Z,98873.81
2023-04-25T03:11:21.367Z,98879.44
2023-04-25T03:13:49.568Z,98869.78
2023-04-25T03:16:17.252Z,98881.28
2023-04-25T03:18:44.794Z,98871.97
2023-04-25T03:21:12.331Z,98869.22
2023-04-25T03:23:39.928Z,98865.53
2023-04-25T03:26:08.651Z,98872.06
2023-04-25T03:28:36.392Z,98864.66
2023-04-25T03:31:03.617Z,98877.88
2023-04-25T03:33:31.527Z,98865.75
2023-04-25T03:35:58.833Z,98864.91
2023-04-25T03:38:26.485Z,98860.63
2023-04-25T03:40:54.160Z,98876.59
2023-04-25T03:43:26.336Z,98872.13
2023-04-25T03:45:59.094Z,98882.50
2023-04-25T03:48:27.687Z,98876.22
2023-04-25T03:50:55.912Z,98879.63
2023-04-25T03:53:23.697Z,98886.22
2023-04-25T03:56:10.548Z,98887.75
2023-04-25T03:58:40.747Z,98893.31
2023-04-25T04:01:09.014Z,98897.94
2023-04-25T04:03:39.502Z,98887.38
2023-04-25T04:06:08.960Z,98907.34
2023-04-25T04:08:40.537Z,98897.66
2023-04-25T04:11:09.992Z,98885.31
2023-04-25T04:13:37.963Z,98908.72
2023-04-25T04:16:06.280Z,98897.94
2023-04-25T04:18:34.490Z,98912.56
2023-04-25T04:21:02.629Z,98922.06
2023-04-25T04:23:32.967Z,98906.13
2023-04-25T04:26:01.003Z,98908.91
2023-04-25T04:28:46.952Z,98903.94
2023-04-25T04:31:36.975Z,98908.25
2023-04-25T04:34:05.546Z,98907.41
2023-04-25T04:36:34.079Z,98914.03
2023-04-25T04:39:02.234Z,98921.25
2023-04-25T04:41:45.360Z,98917.25
2023-04-25T04:44:40.095Z,98920.41
2023-04-25T04:47:44.182Z,98916.56
2023-04-25T04:50:30.293Z,98927.66
2023-04-25T04:53:20.984Z,98914.72
2023-04-25T04:56:24.440Z,98915.53
2023-04-25T04:59:12.742Z,98919.06
2023-04-25T05:02:03.118Z,98926.97
2023-04-25T05:04:57.877Z,98915.38
2023-04-25T05:07:47.736Z,98924.72
2023-04-25T05:10:41.215Z,98917.41
2023-04-25T05:13:37.224Z,98921.28
2023-04-25T05:16:30.430Z,98911.22
2023-04-25T05:19:27.605Z,98914.06
2023-04-25T05:22:27.374Z,98924.50
2023-04-25T05:25:20.899Z,98924.97
2023-04-25T05:28:06.948Z,98925.16
2023-04-25T05:31:12.388Z,98934.63
2023-04-25T05:33:47.982Z,98921.81
2023-04-25T05:36:16.128Z,98919.66
2023-04-25T05:38:43.420Z,98940.38
2023-04-25T05:41:23.238Z,98944.00
2023-04-25T05:44:01.117Z,98952.38
2023-04-25T05:46:40.527Z,98948.19
2023-04-25T05:49:26.451Z,98961.06
2023-04-25T05:51:53.916Z,98949.25
2023-04-25T05:55:17.916Z,98955.84
2023-04-25T05:57:46.318Z,98959.31
2023-04-25T06:00:16.961Z,98957.97
2023-04-25T06:02:46.559Z,98963.84
2023-04-25T06:05:15.578Z,98961.00
2023-04-25T06:07:43.227Z,98975.41
2023-04-25T06:10:10.503Z,98964.75
2023-04-25T06:12:39.666Z,98957.63
2023-04-25T06:15:23.842Z,98965.75
2023-04-25T06:17:55.284Z,98975.84
2023-04-25T06:20:25.082Z,98975.47
2023-04-25T06:22:53.778Z,98972.66
2023-04-25T06:25:25.223Z,98981.66
2023-04-25T06:27:52.881Z,98982.75
2023-04-25T06:30:23.590Z,98979.94
2023-04-25T06:32:54.309Z,98982.53
2023-04-25T06:35:21.883Z,98978.31
2023-04-25T06:37:49.465Z,98977.13
2023-04-25T06:40:20.586Z,98981.59
2023-04-25T06:42:48.218Z,98977.81
2023-04-25T06:45:34.375Z,98981.00
2023-04-25T06:48:01.970Z,98988.00
2023-04-25T06:50:29.379Z,98990.56
2023-04-25T06:52:56.899Z,98988.13
2023-04-25T06:55:24.406Z,98988.66
2023-04-25T06:58:24.230Z,98993.25
2023-04-25T07:01:04.933Z,98995.56
2023-04-25T07:03:32.930Z,98986.81
2023-04-25T07:06:05.101Z,98980.91
2023-04-25T07:08:32.747Z,98988.66
2023-04-25T07:11:00.493Z,98999.41
2023-04-25T07:13:28.049Z,98997.88
2023-04-25T07:15:57.350Z,98992.06
2023-04-25T07:18:25.359Z,99004.03
2023-04-25T07:20:53.037Z,99009.59
2023-04-25T07:23:21.259Z,99008.94
2023-04-25T07:25:48.765Z,99017.75
2023-04-25T07:28:21.330Z,99016.53
2023-04-25T07:30:48.740Z,99015.22
2023-04-25T07:33:16.222Z,99022.94
2023-04-25T07:35:43.361Z,99032.34
2023-04-25T07:38:12.052Z,99020.41
2023-04-25T07:40:39.760Z,99033.44
2023-04-25T07:43:10.139Z,99030.38
2023-04-25T07:45:45.505Z,99027.63
2023-04-25T07:48:18.670Z,99035.88
2023-04-25T07:50:47.128Z,99032.53
2023-04-25T07:53:14.968Z,99040.41
2023-04-25T07:56:23.428Z,99029.78
2023-04-25T07:59:01.711Z,99031.41
2023-04-25T08:01:29.373Z,99031.81
2023-04-25T08:04:00.137Z,99049.31
2023-04-25T08:06:49.566Z,99052.28
2023-04-25T08:09:22.765Z,99043.81
2023-04-25T08:11:50.380Z,99052.69
2023-04-25T08:14:21.728Z,99053.03
2023-04-25T08:16:50.136Z,99048.75
2023-04-25T08:19:18.265Z,99054.66
2023-04-25T08:21:47.068Z,99061.44
2023-04-25T08:24:18.382Z,99065.66
2023-04-25T08:26:45.908Z,99065.84
2023-04-25T08:29:16.624Z,99071.47
2023-04-25T08:31:44.855Z,99076.31
2023-04-25T08:34:14.254Z,99074.28
2023-04-25T08:36:48.724Z,99073.94
2023-04-25T08:39:28.623Z,99080.66
2023-04-25T08:42:16.220Z,99085.97
2023-04-25T08:44:43.569Z,99085.38
2023-04-25T08:47:11.489Z,99084.81
2023-04-25T08:49:47.735Z,99085.22
2023-04-25T08:52:22.566Z,99097.28
2023-04-25T08:54:50.705Z,99091.50
2023-04-25T08:57:21.157Z,99099.78
2023-04-25T08:59:50.317Z,99101.47
2023-04-25T09:02:21.092Z,99100.59
2023-04-25T09:04:50.949Z,99112.25
2023-04-25T09:07:22.237Z,99102.19
2023-04-25T09:09:49.596Z,99110.63
2023-04-25T09:12:21.118Z,99105.13
2023-04-25T09:15:08.076Z,99105.03
2023-04-25T09:18:04.785Z,99114.81
2023-04-25T09:20:59.552Z,99115.53
2023-04-25T09:23:29.818Z,99121.53
2023-04-25T09:25:57.116Z,99131.88
2023-04-25T09:28:28.568Z,99125.91
2023-04-25T09:30:59.078Z,99133.94
2023-04-25T09:33:38.335Z,99124.56
2023-04-25T09:36:12.313Z,99133.28
2023-04-25T09:38:57.339Z,99131.41
2023-04-25T09:41:38.859Z,99129.97
2023-04-25T09:44:06.765Z,99138.44
2023-04-25T09:46:37.924Z,99139.59
2023-04-25T09:49:09.416Z,99131.50
2023-04-25T09:52:00.505Z,99138.19
2023-04-25T09:54:49.621Z,99135.22
2023-04-25T09:57:24.614Z,99145.09
2023-04-25T09:59:55.433Z,99142.03
2023-04-25T10:02:26.350Z,99142.56
2023-04-25T10:04:57.644Z,99151.25
2023-04-25T10:07:31.727Z,99152.78
2023-04-25T10:10:04.700Z,99152.81
2023-04-25T10:12:49.503Z,99148.44
2023-04-25T10:15:17.228Z,99148.13
2023-04-25T10:17:45.047Z,99149.22
2023-04-25T10:20:12.696Z,99147.41
2023-04-25T10:22:45.452Z,99155.88
2023-04-25T10:25:14.554Z,99155.50
2023-04-25T10:27:42.096Z,99160.34
2023-04-25T10:30:16.774Z,99157.19
2023-04-25T10:32:44.883Z,99170.03
2023-04-25T10:35:16.843Z,99167.06
2023-04-25T10:38:12.102Z,99166.41
2023-04-25T10:40:39.647Z,99159.69
2023-04-25T10:43:32.712Z,99175.34
2023-04-25T10:46:13.538Z,99171.00
2023-04-25T10:48:52.919Z,99181.47
2023-04-25T10:51:22.100Z,99185.25
2023-04-25T10:54:09.923Z,99179.22
2023-04-25T10:56:37.345Z,99183.78
2023-04-25T10:59:19.356Z,99183.44
2023-04-25T11:01:52.501Z,99179.84
2023-04-25T11:04:33.315Z,99186.41
2023-04-25T11:07:06.979Z,99189.38
2023-04-25T11:09:36.435Z,99179.91
2023-04-25T11:12:04.216Z,99185.22
2023-04-25T11:14:31.608Z,99180.13
2023-04-25T11:17:00.929Z,99185.75
2023-04-25T11:19:29.258Z,99188.03
2023-04-25T11:22:02.059Z,99187.94
2023-04-25T11:24:40.310Z,99189.53
2023-04-25T11:27:07.979Z,99192.00
2023-04-25T11:29:36.272Z,99188.59
2023-04-25T11:32:04.008Z,99190.72
2023-04-25T11:34:34.097Z,99189.72
2023-04-25T11:37:03.335Z,99186.59
2023-04-25T11:39:31.300Z,99192.03
2023-04-25T11:41:59.873Z,99193.69
2023-04-25T11:44:29.325Z,99210.25
2023-04-25T11:46:56.837Z,99212.25
2023-04-25T11:49:25.889Z,99200.19
2023-04-25T11:51:53.419Z,99207.03
2023-04-25T11:54:20.870Z,99208.75
2023-04-25T11:56:48.451Z,99203.78
2023-04-25T11:59:15.854Z,99216.25
2023-04-25T12:01:50.935Z,99220.13
2023-04-25T12:04:25.163Z,99219.75
2023-04-25T12:06:54.950Z,99214.84
2023-04-25T12:09:29.794Z,99208.31
2023-04-25T12:11:59.455Z,99222.91
2023-04-25T12:14:28.743Z,99211.38
2023-04-25T12:17:05.059Z,99218.06
2023-04-25T12:19:37.555Z,99228.72
2023-04-25T12:22:21.216Z,99225.50
2023-04-25T12:24:48.706Z,99218.97
2023-04-25T12:27:17.832Z,99224.88
2023-04-25T12:29:52.757Z,99228.13
2023-04-25T12:32:20.342Z,99225.81
2023-04-25T12:34:47.628Z,99235.31
2023-04-25T12:37:15.547Z,99239.31
2023-04-25T12:39:42.927Z,99226.00
2023-04-25T12:42:13.064Z,99233.97
2023-04-25T12:44:41.363Z,99232.28
2023-04-25T12:47:09.102Z,99235.50
2023-04-25T12:49:36.503Z,99237.34
2023-04-25T12:52:04.055Z,99227.78
2023-04-25T12:54:31.407Z,99228.47
2023-04-25T12:56:59.404Z,99226.22
2023-04-25T12:59:26.635Z,99228.53
2023-04-25T13:01:54.333Z,99230.00
2023-04-25T13:04:22.548Z,99229.41
2023-04-25T13:06:50.624Z,99227.72
2023-04-25T13:09:17.919Z,99232.94
2023-04-25T13:11:46.192Z,99225.59
2023-04-25T13:14:13.427Z,99232.59
2023-04-25T13:16:41.013Z,99233.91
2023-04-25T13:19:12.044Z,99227.59
2023-04-25T13:21:40.336Z,99228.25
2023-04-25T13:24:08.110Z,99228.03
2023-04-25T13:26:35.667Z,99240.94
2023-04-25T13:29:04.836Z,99233.00
2023-04-25T13:31:32.428Z,99237.66
2023-04-25T13:33:59.661Z,99230.53
2023-04-25T13:36:27.278Z,99233.88
2023-04-25T13:38:54.529Z,99225.56
2023-04-25T13:41:22.160Z,99232.78
2023-04-25T13:43:49.915Z,99232.97
2023-04-25T13:48:49.828Z,99229.00
2023-04-25T13:51:18.639Z,99230.66
2023-04-25T13:53:46.501Z,99231.03
2023-04-25T13:56:14.123Z,99227.13
2023-04-25T13:58:41.661Z,99220.06
2023-04-25T14:01:09.517Z,99228.94
2023-04-25T14:03:37.016Z,99219.84
2023-04-25T14:06:05.628Z,99223.56
2023-04-25T14:08:33.076Z,99218.50
2023-04-25T14:11:00.610Z,99228.72
2023-04-25T14:13:28.009Z,99231.28
2023-04-25T14:15:56.011Z,99225.94
2023-04-25T14:18:23.229Z,99223.56
2023-04-25T14:20:50.723Z,99226.91
2023-04-25T14:23:18.648Z,99220.69
2023-04-25T14:25:46.790Z,99227.38
2023-04-25T14:28:14.060Z,99231.06
2023-04-25T14:30:41.710Z,99243.69
2023-04-25T14:33:09.137Z,99240.19
2023-04-25T14:35:36.875Z,99246.53
2023-04-25T14:38:04.150Z,99252.22
2023-04-25T14:40:31.751Z,99258.69
2023-04-25T14:42:59.207Z,99262.69
2023-04-25T14:45:26.913Z,99255.09
2023-04-25T14:47:54.322Z,99262.50
2023-04-25T14:50:21.923Z,99264.47
2023-04-25T14:52:49.660Z,99282.34
2023-04-25T14:55:17.225Z,99276.53
2023-04-25T14:57:45.218Z,99283.84
2023-04-25T15:00:17.213Z,99271.47
2023-04-25T15:02:44.597Z,99283.16
2023-04-25T15:05:12.686Z,99277.53
2023-04-25T15:07:41.172Z,99284.06
2023-04-25T15:10:14.475Z,99281.91
2023-04-25T15:12:41.712Z,99295.53
2023-04-25T15:15:17.597Z,99292.13
2023-04-25T15:17:52.774Z,99290.41
2023-04-25T15:20:20.600Z,99282.81
2023-04-25T15:22:49.772Z,99290.38
2023-04-25T15:25:18.926Z,99284.78
2023-04-25T15:27:49.117Z,99285.13
2023-04-25T15:30:17.838Z,99285.75
2023-04-25T15:32:47.171Z,99285.09
2023-04-25T15:35:16.008Z,99293.91
2023-04-25T15:37:43.527Z,99281.44
2023-04-25T15:40:20.319Z,99293.41
2023-04-25T15:42:52.871Z,99278.88
2023-04-25T15:45:24.244Z,99292.47
2023-04-25T15:47:53.172Z,99286.97
2023-04-25T15:50:21.674Z,99286.44
2023-04-25T15:52:50.505Z,99272.63
2023-04-25T15:55:21.176Z,99288.59
2023-04-25T15:57:49.919Z,99288.75
2023-04-25T16:00:17.998Z,99283.03
2023-04-25T16:02:48.257Z,99292.63
2023-04-25T16:05:16.659Z,99291.47
2023-04-25T16:07:45.502Z,99289.13
2023-04-25T16:10:13.901Z,99293.78
2023-04-25T16:12:41.434Z,99287.75
2023-04-25T16:15:09.235Z,99285.22
2023-04-25T16:17:36.623Z,99298.81
2023-04-25T16:20:13.597Z,99296.66
2023-04-25T16:22:42.275Z,99281.06
2023-04-25T16:25:50.848Z,99289.25
2023-04-25T16:28:18.202Z,99289.94
2023-04-25T16:30:46.340Z,99292.78
2023-04-25T16:33:13.779Z,99299.66
2023-04-25T16:35:41.412Z,99296.81
2023-04-25T16:38:08.592Z,99294.31
2023-04-25T16:40:36.198Z,99306.56
2023-04-25T16:43:03.487Z,99300.69
2023-04-25T16:45:31.115Z,99296.47
2023-04-25T16:47:58.701Z,99308.91
2023-04-25T16:50:27.152Z,99310.28
2023-04-25T16:52:54.773Z,99309.59
2023-04-25T16:55:22.433Z,99317.66
2023-04-25T16:57:49.658Z,99318.47
2023-04-25T17:00:18.309Z,99315.28
2023-04-25T17:02:45.666Z,99320.47
2023-04-25T17:05:13.669Z,99325.69
2023-04-25T17:07:41.004Z,99326.56
2023-04-25T17:10:08.958Z,99332.97
2023-04-25T17:12:36.141Z,99334.94
2023-04-25T17:15:03.862Z,99329.22
2023-04-25T17:17:35.133Z,99335.75
2023-04-25T17:20:06.033Z,99348.03
2023-04-25T17:22:37.352Z,99335.06
2023-04-25T17:25:08.372Z,99348.13
2023-04-25T17:27:36.775Z,99354.53
2023-04-25T17:30:06.179Z,99350.03
2023-04-25T17:32:34.031Z,99363.97
2023-04-25T17:35:01.615Z,99367.66
2023-04-25T17:37:29.251Z,99355.56
2023-04-25T17:39:56.752Z,99352.31
2023-04-25T17:42:24.242Z,99371.34
2023-04-25T17:44:54.994Z,99364.66
2023-04-25T17:47:23.752Z,99370.38
2023-04-25T17:49:51.583Z,99371.53
2023-04-25T17:52:18.852Z,99366.28
2023-04-25T17:54:47.947Z,99364.19
2023-04-25T17:57:17.122Z,99368.81
2023-04-25T17:59:44.830Z,99368.56
2023-04-25T18:02:12.239Z,99371.22
2023-04-25T18:04:40.145Z,99362.94
2023-04-25T18:07:07.593Z,99380.31
2023-04-25T18:09:35.604Z,99377.44
2023-04-25T18:12:04.056Z,99379.63
2023-04-25T18:14:33.096Z,99372.59
2023-04-25T18:17:00.307Z,99387.22
2023-04-25T18:19:27.737Z,99384.81
2023-04-25T18:21:56.173Z,99384.31
2023-04-25T18:24:27.163Z,99393.25
2023-04-25T18:26:56.036Z,99398.56
2023-04-25T18:29:33.152Z,99401.72
2023-04-25T18:32:01.443Z,99397.69
2023-04-25T18:34:29.065Z,99408.28
2023-04-25T18:36:56.848Z,99406.31
2023-04-25T18:39:24.732Z,99410.53
2023-04-25T18:41:58.784Z,99406.75
2023-04-25T18:44:28.796Z,99404.22
2023-04-25T18:46:59.072Z,99411.78
2023-04-25T18:49:26.630Z,99402.50
2023-04-25T18:51:56.217Z,99411.25
2023-04-25T18:54:23.729Z,99414.44
2023-04-25T18:56:51.416Z,99423.09
2023-04-25T18:59:19.120Z,99425.13
2023-04-25T19:01:46.462Z,99430.13
2023-04-25T19:04:14.688Z,99427.59
2023-04-25T19:06:42.368Z,99421.00
2023-04-25T19:09:10.364Z,99424.06
2023-04-25T19:11:38.277Z,99425.75
2023-04-25T19:14:05.861Z,99426.44
2023-04-25T19:16:38.896Z,99427.56
2023-04-25T19:19:08.653Z,99428.38
2023-04-25T19:21:36.729Z,99427.16
2023-04-25T19:24:05.359Z,99443.00
2023-04-25T19:26:32.960Z,99441.63
2023-04-25T19:29:06.008Z,99438.34
2023-04-25T19:31:35.719Z,99435.19
2023-04-25T19:34:07.707Z,99441.19
2023-04-25T19:36:37.262Z,99443.72
2023-04-25T19:39:07.504Z,99442.41
2023-04-25T19:41:36.904Z,99433.53
2023-04-25T19:44:07.101Z,99436.50
2023-04-25T19:46:35.906Z,99443.94
2023-04-25T19:49:07.090Z,99425.88
2023-04-25T19:51:36.504Z,99427.38
2023-04-25T19:54:04.459Z,99436.91
2023-04-25T19:56:31.892Z,99433.28
2023-04-25T19:58:59.400Z,99435.47
2023-04-25T20:01:27.076Z,99426.97
2023-04-25T20:03:55.221Z,99428.13
2023-04-25T20:06:22.835Z,99432.44
2023-04-25T20:08:53.376Z,99441.13
2023-04-25T20:11:21.730Z,99447.47
2023-04-25T20:13:49.286Z,99439.13
2023-04-25T20:16:19.869Z,99445.66
2023-04-25T20:18:48.735Z,99433.78
2023-04-25T20:21:17.147Z,99442.38
2023-04-25T20:23:45.562Z,99440.41
2023-04-25T20:26:12.972Z,99434.97
2023-04-25T20:29:45.234Z,99434.97
2023-04-25T20:32:13.596Z,99435.13
2023-04-25T20:34:42.211Z,99436.66
2023-04-25T20:37:09.466Z,99429.03
2023-04-25T20:39:36.969Z,99434.69
2023-04-25T20:46:36.385Z,99437.81
2023-04-25T20:49:05.189Z,99428.69
2023-04-25T20:51:32.864Z,99436.78
2023-04-25T20:54:00.540Z,99431.44
2023-04-25T20:56:28.095Z,99439.94
2023-04-25T20:58:56.906Z,99428.22
2023-04-25T21:01:25.017Z,99425.88
2023-04-25T21:03:52.851Z,99440.19
2023-04-25T21:06:21.029Z,99428.84
2023-04-25T21:13:57.646Z,99440.16
2023-04-25T21:20:56.211Z,99434.13
2023-04-25T21:24:04.797Z,99438.34
2023-04-25T21:26:36.430Z,99442.31
2023-04-25T21:29:04.340Z,99443.19
2023-04-25T21:31:32.032Z,99438.13
2023-04-25T21:33:59.316Z,99435.88
2023-04-25T21:36:27.896Z,99438.94
2023-04-25T21:39:05.774Z,99443.13
2023-04-25T21:41:33.467Z,99438.03
2023-04-25T21:44:00.708Z,99427.22
2023-04-25T21:46:28.284Z,99433.31
2023-04-25T21:48:55.983Z,99436.66
2023-04-25T21:51:25.288Z,99435.97
2023-04-25T21:53:52.591Z,99433.59
2023-04-25T21:56:20.057Z,99429.22
2023-04-25T21:58:47.302Z,99447.19
2023-04-25T22:01:15.918Z,99437.03
2023-04-25T22:03:43.335Z,99439.84
2023-04-25T22:06:11.081Z,99443.19
2023-04-25T22:08:38.423Z,99431.34
2023-04-25T22:11:07.498Z,99426.84
2023-04-25T22:13:35.914Z,99436.41
2023-04-25T22:16:04.488Z,99447.41
2023-04-25T22:18:32.687Z,99438.69
2023-04-25T22:21:00.936Z,99427.34
2023-04-25T22:23:28.983Z,99435.38
2023-04-25T22:25:56.534Z,99432.19
2023-04-25T22:28:23.702Z,99436.25
2023-04-25T22:30:51.200Z,99434.84
2023-04-25T22:33:18.371Z,99436.06
2023-04-25T22:35:45.862Z,99435.38
2023-04-25T22:38:13.117Z,99422.06
2023-04-25T22:40:40.700Z,99431.59
2023-04-25T22:43:07.912Z,99425.84
2023-04-25T22:45:35.913Z,99426.25
2023-04-25T22:48:35.322Z,99426.41
2023-04-25T22:51:06.760Z,99421.31
2023-04-25T22:53:36.975Z,99422.16
2023-04-25T22:56:05.093Z,99417.97
2023-04-25T22:58:32.823Z,99432.63
2023-04-25T23:01:00.996Z,99418.81
2023-04-25T23:03:28.379Z,99415.28
2023-04-25T23:05:56.049Z,99426.94
2023-04-25T23:08:23.286Z,99416.38
2023-04-25T23:10:50.824Z,99414.16
2023-04-25T23:13:18.676Z,99421.03
2023-04-25T23:16:23.563Z,99421.03
2023-04-25T23:18:51.101Z,99422.16
2023-04-25T23:21:18.720Z,99417.34
2023-04-25T23:23:50.384Z,99416.78
2023-04-25T23:26:17.715Z,99414.03
2023-04-25T23:28:46.918Z,99407.56
2023-04-25T23:31:14.552Z,99413.06
2023-04-25T23:33:41.793Z,99414.31
2023-04-25T23:36:55.788Z,99422.53
2023-04-25T23:39:23.629Z,99419.16
2023-04-25T23:41:51.634Z,99418.00
2023-04-25T23:45:55.024Z,99423.34
2023-04-25T23:48:23.148Z,99419.44
2023-04-25T23:50:50.506Z,99418.03
2023-04-25T23:53:19.680Z,99413.13
2023-04-25T23:55:47.104Z,99416.94
2023-04-25T23:58:14.589Z,99422.84
